Terminal Aerodrome Forecast
Issued by NWS Boston, MA

Home | Current Version | Previous Version | Text Only | Print | Product List | Glossary On
Versions: 1 2 3 4 5 6 7 8 9 10 11 12 13 14 15 16 17 18 19 20 21 22
000
FTUS41 KBOX 182320
TAFBOS
TAF
KBOS 182320Z 1900/2006 20004KT P6SM SKC
     FM191100 20006KT P6SM FEW008
     FM191500 22010G19KT P6SM SKC
     FM192100 22012G27KT P6SM SKC
     FM200100 23010G19KT P6SM FEW250=

USA.gov is the U.S. government's official web portal to all federal, state and local government web resources and services.